createdAt,value
2022-11-21T00:01:39.168Z,6.30
2022-11-21T00:04:07.573Z,6.30
2022-11-21T00:06:38.567Z,6.30
2022-11-21T00:09:06.266Z,6.40
2022-11-21T00:11:34.392Z,6.40
2022-11-21T00:14:02.622Z,6.40
2022-11-21T00:16:30.397Z,6.40
2022-11-21T00:19:03.885Z,6.50
2022-11-21T00:21:34.124Z,6.50
2022-11-21T00:24:02.235Z,6.60
2022-11-21T00:26:33.698Z,6.60
2022-11-21T00:29:02.323Z,6.60
2022-11-21T00:31:30.252Z,6.60
2022-11-21T00:34:01.256Z,6.60
2022-11-21T00:36:29.249Z,6.60
2022-11-21T00:38:57.134Z,6.60
2022-11-21T00:41:24.985Z,6.60
2022-11-21T00:43:56.105Z,6.50
2022-11-21T00:46:23.841Z,6.50
2022-11-21T00:48:51.913Z,6.50
2022-11-21T00:51:19.845Z,6.50
2022-11-21T00:53:48.059Z,6.50
2022-11-21T00:56:15.747Z,6.50
2022-11-21T00:58:43.341Z,6.50
2022-11-21T01:01:14.476Z,6.50
2022-11-21T01:03:42.413Z,6.40
2022-11-21T01:06:13.767Z,6.40
2022-11-21T01:08:44.717Z,6.40
2022-11-21T01:11:17.083Z,6.40
2022-11-21T01:13:45.463Z,6.30
2022-11-21T01:16:19.325Z,6.30
2022-11-21T01:18:47.898Z,6.20
2022-11-21T01:21:17.819Z,6.30
2022-11-21T01:23:45.934Z,6.20
2022-11-21T01:26:19.672Z,6.20
2022-11-21T01:28:47.793Z,6.20
2022-11-21T01:31:21.759Z,6.20
2022-11-21T01:33:49.938Z,6.20
2022-11-21T01:36:17.734Z,6.10
2022-11-21T01:38:47.957Z,6.20
2022-11-21T01:41:22.873Z,6.10
2022-11-21T01:43:51.385Z,6.10
2022-11-21T01:46:23.084Z,6.10
2022-11-21T01:49:04.519Z,6.00
2022-11-21T01:51:37.373Z,6.10
2022-11-21T01:54:13.657Z,6.00
2022-11-21T01:56:43.984Z,6.00
2022-11-21T01:59:18.263Z,6.00
2022-11-21T02:01:48.626Z,5.90
2022-11-21T02:04:16.708Z,5.90
2022-11-21T02:06:45.092Z,5.90
2022-11-21T02:09:12.798Z,5.90
2022-11-21T02:11:48.096Z,5.90
2022-11-21T02:14:16.071Z,5.90
2022-11-21T02:16:44.407Z,5.90
2022-11-21T02:19:20.219Z,5.90
2022-11-21T02:22:17.015Z,5.90
2022-11-21T02:25:19.201Z,5.90
2022-11-21T02:27:50.358Z,5.90
2022-11-21T02:30:21.283Z,5.80
2022-11-21T02:32:49.435Z,5.80
2022-11-21T02:35:19.095Z,5.80
2022-11-21T02:37:51.143Z,5.80
2022-11-21T02:40:26.967Z,5.80
2022-11-21T02:43:13.593Z,5.90
2022-11-21T02:45:43.697Z,5.90
2022-11-21T02:48:15.249Z,6.00
2022-11-21T02:50:45.252Z,6.00
2022-11-21T02:53:16.358Z,6.10
2022-11-21T02:55:45.369Z,6.10
2022-11-21T02:58:13.582Z,6.20
2022-11-21T03:00:43.102Z,6.20
2022-11-21T03:03:10.969Z,6.20
2022-11-21T03:05:39.879Z,6.20
2022-11-21T03:08:10.730Z,6.20
2022-11-21T03:10:38.814Z,6.00
2022-11-21T03:13:06.938Z,6.30
2022-11-21T03:15:38.373Z,6.30
2022-11-21T03:18:07.327Z,6.30
2022-11-21T03:20:35.385Z,6.30
2022-11-21T03:23:03.689Z,6.30
2022-11-21T03:25:31.773Z,6.30
2022-11-21T03:28:00.029Z,6.30
2022-11-21T03:30:28.695Z,6.30
2022-11-21T03:33:01.251Z,6.30
2022-11-21T03:35:30.232Z,6.30
2022-11-21T03:37:58.306Z,6.20
2022-11-21T03:40:27.097Z,6.20
2022-11-21T03:42:54.773Z,6.20
2022-11-21T03:45:23.447Z,6.20
2022-11-21T03:47:51.674Z,6.10
2022-11-21T03:50:21.305Z,6.10
2022-11-21T03:52:49.144Z,6.00
2022-11-21T03:55:17.226Z,5.90
2022-11-21T03:57:44.934Z,5.80
2022-11-21T04:00:13.802Z,5.80
2022-11-21T04:02:41.617Z,5.70
2022-11-21T04:05:09.635Z,5.60
2022-11-21T04:07:37.462Z,5.60
2022-11-21T04:10:05.648Z,5.50
2022-11-21T04:12:33.412Z,5.40
2022-11-21T04:15:01.180Z,5.40
2022-11-21T04:17:29.096Z,5.30
2022-11-21T04:19:56.776Z,5.30
2022-11-21T04:22:24.627Z,5.30
2022-11-21T04:24:52.393Z,5.20
2022-11-21T04:27:20.014Z,5.20
2022-11-21T04:29:47.890Z,5.20
2022-11-21T04:32:16.965Z,5.20
2022-11-21T04:34:44.622Z,5.10
2022-11-21T04:37:12.315Z,5.10
2022-11-21T04:39:39.983Z,5.10
2022-11-21T04:42:07.780Z,5.10
2022-11-21T04:44:36.639Z,5.10
2022-11-21T04:47:05.701Z,5.10
2022-11-21T04:49:33.853Z,5.00
2022-11-21T04:52:01.880Z,5.00
2022-11-21T04:54:29.984Z,5.00
2022-11-21T04:56:57.911Z,4.90
2022-11-21T04:59:25.755Z,4.90
2022-11-21T05:01:53.511Z,4.90
2022-11-21T05:04:21.432Z,4.80
2022-11-21T05:06:49.170Z,4.80
2022-11-21T05:09:16.841Z,4.80
2022-11-21T05:12:02.974Z,4.70
2022-11-21T05:14:30.829Z,4.80
2022-11-21T05:16:58.472Z,4.70
2022-11-21T05:19:26.237Z,4.70
2022-11-21T05:21:53.995Z,4.60
2022-11-21T05:24:21.735Z,4.70
2022-11-21T05:26:49.357Z,4.70
2022-11-21T05:29:18.181Z,4.70
2022-11-21T05:31:45.883Z,4.70
2022-11-21T05:34:13.813Z,4.70
2022-11-21T05:36:41.556Z,4.70
2022-11-21T05:39:09.428Z,4.70
2022-11-21T05:41:37.347Z,4.80
2022-11-21T05:44:05.205Z,4.80
2022-11-21T05:46:34.157Z,4.90
2022-11-21T05:49:01.940Z,5.00
2022-11-21T05:51:29.783Z,5.00
2022-11-21T05:53:57.621Z,5.00
2022-11-21T05:56:28.728Z,5.10
2022-11-21T05:58:57.223Z,5.10
2022-11-21T06:01:44.756Z,5.10
2022-11-21T06:04:12.609Z,5.10
2022-11-21T06:06:41.771Z,5.10
2022-11-21T06:09:09.598Z,5.10
2022-11-21T06:11:37.404Z,5.20
2022-11-21T06:14:05.309Z,5.20
2022-11-21T06:16:34.523Z,5.20
2022-11-21T06:19:05.160Z,5.20
2022-11-21T06:21:37.387Z,5.30
2022-11-21T06:24:05.786Z,5.40
2022-11-21T06:26:33.610Z,5.50
2022-11-21T06:29:01.496Z,5.50
2022-11-21T06:31:30.493Z,5.60
2022-11-21T06:34:01.417Z,5.60
2022-11-21T06:36:29.206Z,5.60
2022-11-21T06:38:56.986Z,5.60
2022-11-21T06:41:26.957Z,5.70
2022-11-21T06:43:54.857Z,5.80
2022-11-21T06:46:22.643Z,5.90
2022-11-21T06:48:50.571Z,6.00
2022-11-21T06:51:22.036Z,6.00
2022-11-21T06:53:59.144Z,6.10
2022-11-21T06:56:31.486Z,6.20
2022-11-21T06:58:59.960Z,6.20
2022-11-21T07:01:28.053Z,6.30
2022-11-21T07:03:56.045Z,6.40
2022-11-21T07:06:30.593Z,6.50
2022-11-21T07:09:32.291Z,6.70
2022-11-21T07:12:19.717Z,6.50
2022-11-21T07:14:47.922Z,6.60
2022-11-21T07:17:19.107Z,6.70
2022-11-21T07:19:49.270Z,6.70
2022-11-21T07:22:17.459Z,6.80
2022-11-21T07:24:48.103Z,6.80
2022-11-21T07:27:16.002Z,6.90
2022-11-21T07:29:43.954Z,6.90
2022-11-21T07:32:12.292Z,7.00
2022-11-21T07:34:42.787Z,7.10
2022-11-21T07:37:10.485Z,7.10
2022-11-21T07:39:38.261Z,7.20
2022-11-21T07:42:06.567Z,7.20
2022-11-21T07:44:34.404Z,7.20
2022-11-21T07:47:02.830Z,7.20
2022-11-21T07:49:31.144Z,7.20
2022-11-21T07:52:02.144Z,7.20
2022-11-21T07:54:29.919Z,7.20
2022-11-21T07:56:57.642Z,7.20
2022-11-21T07:59:26.942Z,7.20
2022-11-21T08:01:55.546Z,7.20
2022-11-21T08:04:29.525Z,7.20
2022-11-21T08:06:57.712Z,7.20
2022-11-21T08:09:29.534Z,7.20
2022-11-21T08:11:57.673Z,7.20
2022-11-21T08:14:31.416Z,7.20
2022-11-21T08:16:59.217Z,7.20
2022-11-21T08:19:27.217Z,7.20
2022-11-21T08:21:55.161Z,7.30
2022-11-21T08:24:22.860Z,7.30
2022-11-21T08:26:50.662Z,7.50
2022-11-21T08:29:18.275Z,7.60
2022-11-21T08:31:47.426Z,7.80
2022-11-21T08:34:15.161Z,7.80
2022-11-21T08:36:42.746Z,7.90
2022-11-21T08:39:10.360Z,7.90
2022-11-21T08:41:56.586Z,7.90
2022-11-21T08:44:24.886Z,7.90
2022-11-21T08:46:52.555Z,7.90
2022-11-21T08:49:20.216Z,7.90
2022-11-21T08:51:51.321Z,7.90
2022-11-21T08:54:25.621Z,7.90
2022-11-21T08:56:53.817Z,7.90
2022-11-21T08:59:21.413Z,7.90
2022-11-21T09:01:49.202Z,8.00
2022-11-21T09:04:16.934Z,7.90
2022-11-21T09:06:44.535Z,8.00
2022-11-21T09:09:12.280Z,8.00
2022-11-21T09:11:39.858Z,8.00
2022-11-21T09:14:26.010Z,8.00
2022-11-21T09:17:12.311Z,8.00
2022-11-21T09:19:43.620Z,8.00
2022-11-21T09:22:11.226Z,8.00
2022-11-21T09:24:38.905Z,8.10
2022-11-21T09:27:07.073Z,8.10
2022-11-21T09:29:34.644Z,8.10
2022-11-21T09:32:02.352Z,8.10
2022-11-21T09:34:31.701Z,8.20
2022-11-21T09:36:59.464Z,8.20
2022-11-21T09:39:27.603Z,8.20
2022-11-21T09:41:58.398Z,8.30
2022-11-21T09:44:35.229Z,8.30
2022-11-21T09:47:19.487Z,8.30
2022-11-21T09:49:55.462Z,8.30
2022-11-21T09:52:38.199Z,8.30
2022-11-21T09:55:21.413Z,8.30
2022-11-21T09:57:52.997Z,8.30
2022-11-21T10:00:23.679Z,8.30
2022-11-21T10:02:51.859Z,8.30
2022-11-21T10:05:49.819Z,8.30
2022-11-21T10:08:34.779Z,8.30
2022-11-21T10:11:20.486Z,8.30
2022-11-21T10:14:06.496Z,8.30
2022-11-21T10:16:43.288Z,8.30
2022-11-21T10:19:37.169Z,8.30
2022-11-21T10:22:34.173Z,8.40
2022-11-21T10:25:14.016Z,8.40
2022-11-21T10:27:54.311Z,8.40
2022-11-21T10:30:22.603Z,8.40
2022-11-21T10:33:04.739Z,8.40
2022-11-21T10:36:10.028Z,8.50
2022-11-21T10:38:40.561Z,8.50
2022-11-21T10:41:15.961Z,8.50
2022-11-21T10:44:15.711Z,8.60
2022-11-21T10:46:59.146Z,8.60
2022-11-21T10:49:35.122Z,8.60
2022-11-21T10:52:13.854Z,8.60
2022-11-21T10:55:07.750Z,8.60
2022-11-21T10:57:46.067Z,8.60
2022-11-21T11:00:13.710Z,8.70
2022-11-21T11:02:57.567Z,8.70
2022-11-21T11:05:29.303Z,8.70
2022-11-21T11:08:07.954Z,8.70
2022-11-21T11:10:54.057Z,8.80
2022-11-21T11:13:50.379Z,8.80
2022-11-21T11:16:24.546Z,8.80
2022-11-21T11:19:31.605Z,8.90
2022-11-21T11:22:01.865Z,8.90
2022-11-21T11:24:29.602Z,8.90
2022-11-21T11:27:05.445Z,9.00
2022-11-21T11:29:57.439Z,9.00
2022-11-21T11:32:25.705Z,9.00
2022-11-21T11:35:12.960Z,9.00
2022-11-21T11:37:42.471Z,8.90
2022-11-21T11:40:38.326Z,8.90
2022-11-21T11:43:24.366Z,8.90
2022-11-21T11:46:25.053Z,8.90
2022-11-21T11:51:56.678Z,8.90
2022-11-21T11:54:31.724Z,9.00
2022-11-21T11:56:59.967Z,9.00
2022-11-21T11:59:54.197Z,9.00
2022-11-21T12:02:29.382Z,9.00
2022-11-21T12:05:11.433Z,9.10
2022-11-21T12:11:16.965Z,9.20
2022-11-21T12:13:49.694Z,9.30
2022-11-21T12:16:17.760Z,9.30
2022-11-21T12:18:54.929Z,9.40
2022-11-21T12:21:23.584Z,9.40
2022-11-21T12:23:52.717Z,9.40
2022-11-21T12:26:20.346Z,9.40
2022-11-21T12:29:20.662Z,9.50
2022-11-21T12:32:10.083Z,9.50
2022-11-21T12:34:43.583Z,9.50
2022-11-21T12:37:27.627Z,9.50
2022-11-21T12:40:26.548Z,9.50
2022-11-21T12:43:11.601Z,9.50
2022-11-21T12:45:47.221Z,9.50
2022-11-21T12:49:04.370Z,9.40
2022-11-21T12:52:13.205Z,9.30
2022-11-21T12:54:47.092Z,9.30
2022-11-21T12:57:26.906Z,9.20
2022-11-21T13:00:04.139Z,9.20
2022-11-21T13:03:09.564Z,9.20
2022-11-21T13:05:41.273Z,9.10
2022-11-21T13:08:26.740Z,9.10
2022-11-21T13:11:35.242Z,9.10
2022-11-21T13:14:13.917Z,9.00
2022-11-21T13:16:48.348Z,9.00
2022-11-21T13:19:24.895Z,9.00
2022-11-21T13:21:56.997Z,8.90
2022-11-21T13:24:47.250Z,8.80
2022-11-21T13:27:33.396Z,8.80
2022-11-21T13:30:07.104Z,8.70
2022-11-21T13:32:42.089Z,8.60
2022-11-21T13:35:38.948Z,8.60
2022-11-21T13:38:13.163Z,8.50
2022-11-21T13:41:05.252Z,8.40
2022-11-21T13:43:34.567Z,8.30
2022-11-21T13:46:02.842Z,8.20
2022-11-21T13:49:00.960Z,8.10
2022-11-21T13:51:50.353Z,8.10
2022-11-21T13:54:26.604Z,8.00
2022-11-21T13:57:09.482Z,7.90
2022-11-21T14:00:19.885Z,7.90
2022-11-21T14:03:01.496Z,7.90
2022-11-21T14:05:46.155Z,7.80
2022-11-21T14:08:22.315Z,7.80
2022-11-21T14:10:54.652Z,7.80
2022-11-21T14:13:25.237Z,7.80
2022-11-21T14:16:17.528Z,7.70
2022-11-21T14:18:47.276Z,7.80
2022-11-21T14:21:35.773Z,7.80
2022-11-21T14:24:15.618Z,7.70
2022-11-21T14:26:49.566Z,7.70
2022-11-21T14:29:29.291Z,7.70
2022-11-21T14:31:57.260Z,7.70
2022-11-21T14:34:29.894Z,7.70
2022-11-21T14:37:00.567Z,7.70
2022-11-21T14:39:42.193Z,7.80
2022-11-21T14:42:15.306Z,7.70
2022-11-21T14:44:43.515Z,7.70
2022-11-21T14:47:25.792Z,7.70
2022-11-21T14:49:56.974Z,7.70
2022-11-21T14:52:31.542Z,7.70
2022-11-21T14:55:29.652Z,7.80
2022-11-21T14:57:48.622Z,7.70
2022-11-21T15:00:58.125Z,7.80
2022-11-21T15:03:22.183Z,7.70
2022-11-21T15:06:05.027Z,7.70
2022-11-21T15:11:42.962Z,7.80
2022-11-21T15:14:29.877Z,7.80
2022-11-21T15:16:58.984Z,7.80
2022-11-21T15:19:30.273Z,7.80
2022-11-21T15:22:00.421Z,7.80
2022-11-21T15:24:37.476Z,7.90
2022-11-21T15:27:27.096Z,7.90
2022-11-21T15:30:10.286Z,7.90
2022-11-21T15:33:00.195Z,8.00
2022-11-21T15:35:53.259Z,8.00
2022-11-21T15:38:49.381Z,8.00
2022-11-21T15:41:16.951Z,8.00
2022-11-21T15:43:56.662Z,8.00
2022-11-21T15:46:28.197Z,8.10
2022-11-21T15:48:57.648Z,8.10
2022-11-21T15:52:05.547Z,8.10
2022-11-21T15:54:27.492Z,8.10
2022-11-21T15:56:55.637Z,8.20
2022-11-21T15:59:23.256Z,8.20
2022-11-21T16:01:50.871Z,8.20
2022-11-21T16:04:23.865Z,8.30
2022-11-21T16:06:53.800Z,8.30
2022-11-21T16:09:21.471Z,8.30
2022-11-21T16:11:49.132Z,8.30
2022-11-21T16:14:18.541Z,8.30
2022-11-21T16:16:47.831Z,8.30
2022-11-21T16:19:16.101Z,8.40
2022-11-21T16:21:44.115Z,8.40
2022-11-21T16:24:12.853Z,8.40
2022-11-21T16:26:40.494Z,8.50
2022-11-21T16:29:10.632Z,8.50
2022-11-21T16:31:38.541Z,8.50
2022-11-21T16:34:06.228Z,8.50
2022-11-21T16:36:36.375Z,8.50
2022-11-21T16:39:09.954Z,8.60
2022-11-21T16:41:39.447Z,8.60
2022-11-21T16:44:16.426Z,8.60
2022-11-21T16:46:49.236Z,8.60
2022-11-21T16:49:20.302Z,8.60
2022-11-21T16:51:48.058Z,8.70
2022-11-21T16:54:15.835Z,8.70
2022-11-21T16:56:47.613Z,8.60
2022-11-21T16:59:15.402Z,8.70
2022-11-21T17:01:43.636Z,8.70
2022-11-21T17:04:17.628Z,8.60
2022-11-21T17:06:49.074Z,8.50
2022-11-21T17:09:17.424Z,8.50
2022-11-21T17:11:46.060Z,8.40
2022-11-21T17:14:13.813Z,8.40
2022-11-21T17:16:42.115Z,8.30
2022-11-21T17:19:16.334Z,8.20
2022-11-21T17:21:59.870Z,8.20
2022-11-21T17:24:29.340Z,8.10
2022-11-21T17:27:02.960Z,8.10
2022-11-21T17:29:32.038Z,8.00
2022-11-21T17:31:59.932Z,8.00
2022-11-21T17:34:33.189Z,7.90
2022-11-21T17:37:01.181Z,7.90
2022-11-21T17:39:30.585Z,7.90
2022-11-21T17:42:02.349Z,7.80
2022-11-21T17:44:30.671Z,7.80
2022-11-21T17:47:02.043Z,7.80
2022-11-21T17:49:37.094Z,7.80
2022-11-21T17:52:08.231Z,7.70
2022-11-21T17:54:36.315Z,7.70
2022-11-21T17:57:04.466Z,7.70
2022-11-21T17:59:33.660Z,7.70
2022-11-21T18:02:02.137Z,7.70
2022-11-21T18:04:30.394Z,7.70
2022-11-21T18:06:58.710Z,7.70
2022-11-21T18:09:26.924Z,7.70
2022-11-21T18:11:55.109Z,7.70
2022-11-21T18:14:23.100Z,7.80
2022-11-21T18:16:56.091Z,7.80
2022-11-21T18:19:26.380Z,7.80
2022-11-21T18:21:54.816Z,7.80
2022-11-21T18:24:22.777Z,7.70
2022-11-21T18:26:50.924Z,7.70
2022-11-21T18:32:07.515Z,7.80
2022-11-21T18:34:38.007Z,7.80
2022-11-21T18:37:06.028Z,7.80
2022-11-21T18:39:44.599Z,7.80
2022-11-21T18:42:48.081Z,7.80
2022-11-21T18:45:16.284Z,7.80
2022-11-21T18:47:49.922Z,7.80
2022-11-21T18:50:18.049Z,7.80
2022-11-21T18:52:46.944Z,7.80
2022-11-21T18:55:15.673Z,7.80
2022-11-21T18:57:43.473Z,7.80
2022-11-21T19:00:12.353Z,7.80
2022-11-21T19:02:48.553Z,7.80
2022-11-21T19:05:20.384Z,7.80
2022-11-21T19:07:48.902Z,7.80
2022-11-21T19:10:41.560Z,7.70
2022-11-21T19:13:05.842Z,7.70
2022-11-21T19:15:38.664Z,7.70
2022-11-21T19:18:06.753Z,7.60
2022-11-21T19:20:39.015Z,7.60
2022-11-21T19:23:26.270Z,7.60
2022-11-21T19:26:00.067Z,7.60
2022-11-21T19:28:29.338Z,7.60
2022-11-21T19:30:58.393Z,7.50
2022-11-21T19:33:28.220Z,7.40
2022-11-21T19:36:04.151Z,7.30
2022-11-21T19:38:32.255Z,7.30
2022-11-21T19:41:15.891Z,7.20
2022-11-21T19:43:45.224Z,7.10
2022-11-21T19:46:18.839Z,7.10
2022-11-21T19:48:51.784Z,7.00
2022-11-21T19:51:21.374Z,7.00
2022-11-21T19:53:49.698Z,6.90
2022-11-21T19:56:20.052Z,6.80
2022-11-21T19:58:49.196Z,6.80
2022-11-21T20:01:19.553Z,6.80
2022-11-21T20:03:52.846Z,6.70
2022-11-21T20:06:28.243Z,6.70
2022-11-21T20:09:06.985Z,6.70
2022-11-21T20:11:35.637Z,6.70
2022-11-21T20:14:03.943Z,6.60
2022-11-21T20:16:54.397Z,6.60
2022-11-21T20:19:25.328Z,6.60
2022-11-21T20:21:53.248Z,6.50
2022-11-21T20:24:21.581Z,6.50
2022-11-21T20:26:49.567Z,6.50
2022-11-21T20:29:17.390Z,6.50
2022-11-21T20:31:45.216Z,6.50
2022-11-21T20:34:14.042Z,6.50
2022-11-21T20:36:42.831Z,6.50
2022-11-21T20:39:17.347Z,6.50
2022-11-21T20:41:46.389Z,6.50
2022-11-21T20:47:07.863Z,6.50
2022-11-21T20:49:35.842Z,6.50
2022-11-21T20:54:51.234Z,6.50
2022-11-21T20:57:18.911Z,6.50
2022-11-21T20:59:46.619Z,6.40
2022-11-21T21:02:15.010Z,6.40
2022-11-21T21:04:42.843Z,6.40
2022-11-21T21:07:10.728Z,6.30
2022-11-21T21:09:38.893Z,6.20
2022-11-21T21:12:06.766Z,6.40
2022-11-21T21:14:35.220Z,6.30
2022-11-21T21:17:03.117Z,6.40
2022-11-21T21:19:33.907Z,6.40
2022-11-21T21:22:01.599Z,6.40
2022-11-21T21:24:32.599Z,6.40
2022-11-21T21:27:00.575Z,6.30
2022-11-21T21:29:29.643Z,6.30
2022-11-21T21:31:57.684Z,6.30
2022-11-21T21:34:26.237Z,6.30
2022-11-21T21:36:57.170Z,6.20
2022-11-21T21:39:25.609Z,6.20
2022-11-21T21:41:53.752Z,6.10
2022-11-21T21:44:25.929Z,6.20
2022-11-21T21:46:56.657Z,6.10
2022-11-21T21:49:25.018Z,6.10
2022-11-21T21:51:53.471Z,6.10
2022-11-21T21:54:24.255Z,6.10
2022-11-21T21:56:52.090Z,6.00
2022-11-21T21:59:19.960Z,6.00
2022-11-21T22:01:48.050Z,6.00
2022-11-21T22:04:16.158Z,6.00
2022-11-21T22:06:45.209Z,6.00
2022-11-21T22:09:13.030Z,6.00
2022-11-21T22:11:40.944Z,6.00
2022-11-21T22:14:13.448Z,6.00
2022-11-21T22:16:54.808Z,6.00
2022-11-21T22:19:23.578Z,6.00
2022-11-21T22:21:51.559Z,6.00
2022-11-21T22:24:27.481Z,6.00
2022-11-21T22:26:57.430Z,6.00
2022-11-21T22:29:25.645Z,5.90
2022-11-21T22:32:04.989Z,5.90
2022-11-21T22:34:33.197Z,5.90
2022-11-21T22:37:01.244Z,5.90
2022-11-21T22:39:28.994Z,5.90
2022-11-21T22:41:59.802Z,5.90
2022-11-21T22:44:27.867Z,5.90
2022-11-21T22:46:55.789Z,5.80
2022-11-21T22:49:23.932Z,5.80
2022-11-21T22:51:51.607Z,5.80
2022-11-21T22:54:19.259Z,5.70
2022-11-21T22:56:46.931Z,5.70
2022-11-21T22:59:15.075Z,5.70
2022-11-21T23:01:45.066Z,5.70
2022-11-21T23:04:17.430Z,5.70
2022-11-21T23:06:45.568Z,5.60
2022-11-21T23:09:13.418Z,5.60
2022-11-21T23:11:41.294Z,5.60
2022-11-21T23:14:09.258Z,5.60
2022-11-21T23:16:37.014Z,5.60
2022-11-21T23:19:04.728Z,5.60
2022-11-21T23:21:35.464Z,5.60
2022-11-21T23:24:03.182Z,5.60
2022-11-21T23:26:30.950Z,5.60
2022-11-21T23:29:01.309Z,5.60
2022-11-21T23:31:33.654Z,5.60
2022-11-21T23:34:01.580Z,5.60
2022-11-21T23:36:29.229Z,5.70
2022-11-21T23:38:56.875Z,5.70
2022-11-21T23:41:24.683Z,5.70
2022-11-21T23:43:52.342Z,5.70
2022-11-21T23:46:21.042Z,5.70
2022-11-21T23:48:49.687Z,6.70
2022-11-21T23:51:17.435Z,5.70
2022-11-21T23:53:53.187Z,5.70
2022-11-21T23:56:25.018Z,5.70
2022-11-21T23:58:55.462Z,5.60
